createdAt,value
2018-03-27T00:01:51.499Z,45.00
2018-03-27T00:06:54.125Z,43.43
2018-03-27T00:11:56.701Z,44.60
2018-03-27T00:17:02.535Z,43.63
2018-03-27T00:22:05.118Z,47.50
2018-03-27T00:27:07.257Z,48.40
2018-03-27T00:32:24.570Z,48.37
2018-03-27T00:37:39.305Z,45.53
2018-03-27T00:42:43.719Z,51.63
2018-03-27T00:47:46.926Z,49.70
2018-03-27T00:52:50.288Z,52.10
2018-03-27T00:57:52.883Z,53.53
2018-03-27T01:02:57.350Z,56.57
2018-03-27T01:08:01.070Z,52.17
2018-03-27T01:13:03.665Z,58.03
2018-03-27T01:18:06.274Z,56.03
2018-03-27T01:23:08.859Z,54.10
2018-03-27T01:28:11.453Z,59.63
2018-03-27T01:33:14.070Z,62.60
2018-03-27T01:38:16.684Z,56.87
2018-03-27T01:43:19.274Z,54.20
2018-03-27T01:48:21.852Z,60.07
2018-03-27T01:53:24.472Z,54.80
2018-03-27T01:58:27.078Z,55.70
2018-03-27T02:03:29.670Z,54.33
2018-03-27T02:08:32.909Z,51.03
2018-03-27T02:13:41.187Z,45.73
2018-03-27T02:18:49.313Z,48.20
2018-03-27T02:23:56.760Z,51.20
2018-03-27T02:29:06.432Z,48.93
2018-03-27T02:34:09.040Z,57.53
2018-03-27T02:39:11.630Z,53.27
2018-03-27T02:44:14.896Z,53.30
2018-03-27T02:49:18.260Z,57.83
2018-03-27T02:54:20.863Z,57.87
2018-03-27T02:59:23.574Z,55.57
2018-03-27T03:04:26.493Z,56.93
2018-03-27T03:09:32.753Z,56.90
2018-03-27T03:14:35.338Z,52.50
2018-03-27T03:19:38.024Z,53.10
2018-03-27T03:24:43.267Z,51.33
2018-03-27T03:29:46.613Z,54.33
2018-03-27T03:34:49.757Z,46.83
2018-03-27T03:39:52.365Z,51.83
2018-03-27T03:44:54.970Z,51.07
2018-03-27T03:49:57.556Z,47.80
2018-03-27T03:55:02.070Z,55.83
2018-03-27T04:00:04.656Z,53.83
2018-03-27T04:05:09.685Z,64.70
2018-03-27T04:10:13.029Z,55.93
2018-03-27T04:15:18.274Z,59.67
2018-03-27T04:20:21.621Z,56.00
2018-03-27T04:25:25.428Z,52.33
2018-03-27T04:30:28.844Z,54.30
2018-03-27T04:35:32.678Z,53.63
2018-03-27T04:40:35.264Z,47.53
2018-03-27T04:45:38.637Z,50.87
2018-03-27T04:50:41.238Z,55.83
2018-03-27T04:55:44.246Z,53.90
2018-03-27T05:00:46.827Z,49.60
2018-03-27T05:05:49.417Z,52.47
2018-03-27T05:10:51.990Z,54.93
2018-03-27T05:15:54.612Z,49.47
2018-03-27T05:20:57.203Z,52.47
2018-03-27T05:25:59.821Z,56.30
2018-03-27T05:31:08.469Z,58.37
2018-03-27T05:36:11.062Z,50.20
2018-03-27T05:41:16.375Z,56.90
2018-03-27T05:46:18.966Z,51.53
2018-03-27T05:51:24.020Z,51.77
2018-03-27T05:56:27.450Z,50.47
2018-03-27T06:01:30.047Z,51.97
2018-03-27T06:06:32.642Z,56.53
2018-03-27T06:11:36.633Z,58.17
2018-03-27T06:16:39.225Z,58.93
2018-03-27T06:21:42.604Z,61.67
2018-03-27T06:26:45.781Z,55.00
2018-03-27T06:31:48.404Z,58.47
2018-03-27T06:36:50.982Z,56.60
2018-03-27T06:41:53.837Z,64.30
2018-03-27T06:46:59.047Z,60.90
2018-03-27T06:52:01.648Z,61.53
2018-03-27T06:57:04.245Z,61.13
2018-03-27T07:02:07.379Z,71.00
2018-03-27T07:07:10.009Z,63.63
2018-03-27T07:12:12.635Z,64.10
2018-03-27T07:17:15.986Z,58.60
2018-03-27T07:22:19.305Z,53.40
2018-03-27T07:27:25.408Z,58.87
2018-03-27T07:32:28.090Z,52.50
2018-03-27T07:37:30.620Z,49.80
2018-03-27T07:42:33.212Z,53.67
2018-03-27T07:47:37.705Z,62.20
2018-03-27T07:52:41.537Z,58.70
2018-03-27T07:57:44.120Z,60.17
2018-03-27T08:02:46.712Z,54.27
2018-03-27T08:07:52.107Z,57.97
2018-03-27T08:12:55.169Z,53.87
2018-03-27T08:17:57.988Z,49.77
2018-03-27T08:23:01.960Z,54.83
2018-03-27T08:28:04.572Z,47.83
2018-03-27T08:33:08.587Z,52.30
2018-03-27T08:38:11.221Z,60.87
2018-03-27T08:43:16.512Z,45.73
2018-03-27T08:48:19.914Z,47.10
2018-03-27T08:53:22.543Z,53.17
2018-03-27T08:58:25.962Z,52.63
2018-03-27T09:03:29.360Z,49.17
2018-03-27T09:08:32.581Z,47.73
2018-03-27T09:13:35.228Z,52.70
2018-03-27T09:18:37.842Z,57.37
2018-03-27T09:23:40.466Z,54.60
2018-03-27T09:28:43.079Z,45.97
2018-03-27T09:33:45.700Z,47.70
2018-03-27T09:38:48.305Z,48.43
2018-03-27T09:43:50.910Z,52.17
2018-03-27T09:48:54.294Z,51.33
2018-03-27T09:53:56.895Z,51.90
2018-03-27T09:58:59.494Z,55.63
2018-03-27T10:04:02.093Z,47.33
2018-03-27T10:09:05.647Z,44.77
2018-03-27T10:14:08.248Z,48.27
2018-03-27T10:19:11.612Z,44.50
2018-03-27T10:24:14.230Z,44.30
2018-03-27T10:29:16.819Z,42.40
2018-03-27T10:34:19.420Z,45.53
2018-03-27T10:39:22.413Z,38.00
2018-03-27T10:44:25.037Z,39.40
2018-03-27T10:49:27.630Z,43.57
2018-03-27T10:54:30.250Z,36.50
2018-03-27T10:59:32.866Z,30.67
2018-03-27T11:04:35.494Z,33.00
2018-03-27T11:09:38.082Z,31.67
2018-03-27T11:14:41.464Z,30.53
2018-03-27T11:19:44.058Z,32.20
2018-03-27T11:24:47.295Z,34.40
2018-03-27T11:29:50.502Z,29.53
2018-03-27T11:34:53.115Z,29.20
2018-03-27T11:39:55.724Z,27.20
2018-03-27T11:44:58.309Z,29.50
2018-03-27T11:50:00.910Z,29.10
2018-03-27T11:55:03.574Z,26.00
2018-03-27T12:00:06.919Z,27.30
2018-03-27T12:05:09.517Z,26.57
2018-03-27T12:10:12.130Z,28.97
2018-03-27T12:15:14.791Z,28.90
2018-03-27T12:20:18.125Z,26.57
2018-03-27T12:25:20.713Z,31.20
2018-03-27T12:30:23.346Z,29.80
2018-03-27T12:35:25.941Z,31.10
2018-03-27T12:40:29.464Z,31.87
2018-03-27T12:45:32.074Z,31.90
2018-03-27T12:50:35.460Z,30.30
2018-03-27T12:55:38.058Z,31.43
2018-03-27T13:00:40.648Z,30.67
2018-03-27T13:05:48.141Z,34.37
2018-03-27T13:10:50.719Z,35.47
2018-03-27T13:15:53.321Z,33.93
2018-03-27T13:20:55.924Z,27.67
2018-03-27T13:25:58.509Z,26.53
2018-03-27T13:31:01.109Z,28.23
2018-03-27T13:36:03.696Z,29.23
2018-03-27T13:41:06.294Z,26.67
2018-03-27T13:46:08.894Z,25.17
2018-03-27T13:51:11.510Z,25.13
2018-03-27T13:56:14.113Z,25.37
2018-03-27T14:01:16.722Z,24.47
2018-03-27T14:06:19.322Z,21.70
2018-03-27T14:11:21.913Z,24.80
2018-03-27T14:16:25.062Z,21.13
2018-03-27T14:21:27.649Z,26.13
2018-03-27T14:26:30.997Z,19.90
2018-03-27T14:31:36.240Z,21.17
2018-03-27T14:36:40.544Z,20.90
2018-03-27T14:41:44.568Z,23.50
2018-03-27T14:46:47.915Z,22.30
2018-03-27T14:51:50.502Z,25.03
2018-03-27T14:56:53.951Z,21.00
2018-03-27T15:01:56.537Z,21.63
2018-03-27T15:06:59.135Z,18.00
2018-03-27T15:12:02.492Z,20.40
2018-03-27T15:17:05.220Z,19.83
2018-03-27T15:22:09.810Z,24.30
2018-03-27T15:27:14.266Z,22.30
2018-03-27T15:32:16.876Z,22.90
2018-03-27T15:37:19.471Z,18.57
2018-03-27T15:42:23.545Z,20.63
2018-03-27T15:47:26.146Z,23.20
2018-03-27T15:52:28.730Z,18.10
2018-03-27T15:57:31.341Z,20.30
2018-03-27T16:02:33.940Z,23.67
2018-03-27T16:07:37.388Z,23.80
2018-03-27T16:12:39.973Z,25.50
2018-03-27T16:17:43.226Z,21.83
2018-03-27T16:22:46.583Z,28.83
2018-03-27T16:27:49.465Z,22.03
2018-03-27T16:32:52.877Z,20.63
2018-03-27T16:37:55.458Z,20.33
2018-03-27T16:42:58.826Z,31.13
2018-03-27T16:48:01.425Z,20.73
2018-03-27T16:53:04.674Z,22.60
2018-03-27T16:58:07.264Z,21.43
2018-03-27T17:03:10.109Z,18.80
2018-03-27T17:08:13.373Z,21.17
2018-03-27T17:13:15.985Z,22.07
2018-03-27T17:18:18.592Z,20.63
2018-03-27T17:23:21.222Z,23.90
2018-03-27T17:28:24.273Z,24.30
2018-03-27T17:33:27.158Z,22.87
2018-03-27T17:38:30.045Z,21.77
2018-03-27T17:43:32.661Z,21.27
2018-03-27T17:48:35.522Z,25.20
2018-03-27T17:53:38.696Z,25.30
2018-03-27T17:58:41.301Z,23.80
2018-03-27T18:03:44.255Z,25.23
2018-03-27T18:08:47.629Z,32.60
2018-03-27T18:13:51.973Z,29.70
2018-03-27T18:18:56.497Z,29.83
2018-03-27T18:23:59.134Z,30.13
2018-03-27T18:29:03.130Z,29.73
2018-03-27T18:34:05.849Z,31.90
2018-03-27T18:39:09.217Z,32.07
2018-03-27T18:44:11.802Z,35.97
2018-03-27T18:49:14.413Z,37.43
2018-03-27T18:54:17.020Z,37.23
2018-03-27T18:59:19.937Z,36.03
2018-03-27T19:04:23.017Z,35.50
2018-03-27T19:09:26.217Z,36.13
2018-03-27T19:14:29.081Z,42.30
2018-03-27T19:19:31.706Z,42.33
2018-03-27T19:24:35.930Z,45.33
2018-03-27T19:29:39.401Z,48.67
2018-03-27T19:34:42.453Z,47.10
2018-03-27T19:39:45.046Z,53.10
2018-03-27T19:44:47.905Z,53.00
2018-03-27T19:49:50.531Z,52.40
2018-03-27T19:54:53.167Z,48.97
2018-03-27T19:59:55.768Z,54.57
2018-03-27T20:04:58.359Z,53.90
2018-03-27T20:10:00.984Z,56.10
2018-03-27T20:15:06.718Z,52.83
2018-03-27T20:20:09.753Z,52.10
2018-03-27T20:25:12.351Z,45.33
2018-03-27T20:30:22.121Z,48.43
2018-03-27T20:35:25.050Z,48.77
2018-03-27T20:40:28.414Z,46.30
2018-03-27T20:45:31.580Z,44.50
2018-03-27T20:50:34.212Z,40.73
2018-03-27T20:55:36.803Z,37.23
2018-03-27T21:00:42.068Z,37.57
2018-03-27T21:05:48.213Z,43.00
2018-03-27T21:10:51.576Z,37.17
2018-03-27T21:15:54.599Z,34.27
2018-03-27T21:20:57.491Z,35.40
2018-03-27T21:26:00.078Z,32.27
2018-03-27T21:31:02.669Z,34.57
2018-03-27T21:36:07.880Z,34.83
2018-03-27T21:41:10.485Z,33.33
2018-03-27T21:46:13.078Z,26.93
2018-03-27T21:51:15.677Z,30.60
2018-03-27T21:56:18.541Z,29.40
2018-03-27T22:01:21.132Z,30.60
2018-03-27T22:06:29.862Z,31.17
2018-03-27T22:11:33.229Z,36.90
2018-03-27T22:16:36.098Z,34.20
2018-03-27T22:21:38.686Z,37.60
2018-03-27T22:26:42.046Z,34.47
2018-03-27T22:31:47.226Z,34.20
2018-03-27T22:37:04.491Z,33.97
2018-03-27T22:42:07.107Z,37.30
2018-03-27T22:47:09.889Z,35.73
2018-03-27T22:52:12.506Z,37.63
2018-03-27T22:57:15.147Z,34.50
2018-03-27T23:02:18.151Z,36.80
2018-03-27T23:07:20.749Z,34.00
2018-03-27T23:12:23.341Z,36.40
2018-03-27T23:17:26.696Z,37.80
2018-03-27T23:22:31.540Z,31.27
2018-03-27T23:27:34.133Z,31.43
2018-03-27T23:32:36.968Z,30.50
2018-03-27T23:37:39.557Z,24.30
2018-03-27T23:42:43.016Z,25.23
2018-03-27T23:47:45.630Z,21.67
2018-03-27T23:52:48.227Z,21.63
2018-03-27T23:57:50.859Z,20.43
